Latest Weather Observations for Mildura

IDN60801

Issued at 7:32 pm EDT Thursday 11 February 2016 (issued every 30 minutes, with the page automatically refreshed every 10 minutes)

About weather observations | Map of weather stations | Latest weather observations for NSW | Other Formats
Station Details ID: 076031 Name: MILDURA AIRPORT Lat: -34.24 Lon: 142.09 Height: 50.0 m
Data from the previous 72 hours. | See also: Recent months at Mildura
Date/Time
EDT
Temp
°C
App
Temp
°C
Dew
Point
Rel
Hum
%
Delta-T
°C
Wind Press
QNH
hPa
Press
MSL
hPa
Rain
since 9 am
mm
Dir
 
Spd
km/h
Gust
km/h
Spd
kts
Gust
kts
11/07:30pm 34.6 30.1 -0.1 11 17.1 SSE 13 19 7 10 1010.7 1010.5 0.0
11/07:00pm 35.2 30.8 0.3 11 17.4 SSE 13 19 7 10 1010.6 1010.4 0.0
11/06:30pm 35.3 30.7 -0.9 10 17.7 SSE 13 22 7 12 1010.5 1010.3 0.0
11/06:00pm 35.4 30.6 -2.3 9 18.0 S 13 20 7 11 1010.6 1010.4 0.0
11/05:30pm 35.5 30.9 -0.8 10 17.8 SSE 13 26 7 14 1010.5 1010.3 0.0
11/05:00pm 35.2 29.8 -1.0 10 17.7 SSE 17 26 9 14 1010.5 1010.3 0.0
11/04:30pm 35.2 31.2 0.3 11 17.4 S 11 20 6 11 1010.9 1010.7 0.0
11/04:00pm 35.1 30.5 1.5 12 17.1 SSE 15 28 8 15 1011.2 1011.0 0.0
11/03:30pm 34.5 30.4 2.1 13 16.5 SE 13 22 7 12 1011.4 1011.2 0.0
11/03:00pm 34.0 30.2 3.7 15 15.8 ESE 13 26 7 14 1011.7 1011.5 0.0
11/02:30pm 34.6 30.5 4.2 15 16.1 SE 15 22 8 12 1012.1 1011.9 0.0
11/02:00pm 33.4 29.4 6.6 19 14.6 ESE 17 22 9 12 1012.4 1012.2 0.0
11/01:30pm 33.2 29.5 7.9 21 14.1 ESE 17 32 9 17 1012.6 1012.4 0.0
11/01:00pm 32.0 28.4 8.3 23 13.2 SE 17 26 9 14 1013.0 1012.8 0.0
11/12:30pm 30.8 27.0 9.1 26 12.2 SE 19 26 10 14 1013.6 1013.4 0.0
11/12:00pm 29.7 25.6 8.7 27 11.6 SE 20 28 11 15 1014.2 1014.0 0.0
11/11:30am 29.0 25.2 9.2 29 11.0 SSE 19 28 10 15 1014.5 1014.3 0.0
11/11:00am 26.9 22.4 8.4 31 10.0 SSE 22 30 12 16 1014.6 1014.4 0.0
11/10:30am 26.3 22.2 8.8 33 9.5 SE 20 28 11 15 1014.5 1014.3 0.0
11/10:00am 24.7 20.6 8.6 36 8.7 SE 20 28 11 15 1014.6 1014.4 0.0
11/09:30am 23.0 18.7 7.9 38 7.9 SSE 20 26 11 14 1014.5 1014.3 0.0
11/09:00am 21.5 17.4 7.7 41 7.2 SE 19 26 10 14 1014.3 1014.1 0.0
11/08:30am 20.9 17.5 7.5 42 6.9 SSE 15 20 8 11 1014.3 1014.1 0.0
11/08:00am 19.0 15.9 7.1 46 6.0 S 13 17 7 9 1014.1 1013.9 0.0
11/07:30am 17.8 14.5 6.3 47 5.7 S 13 17 7 9 1013.6 1013.4 0.0
11/07:00am 17.7 14.2 5.3 44 6.0 S 13 17 7 9 1013.1 1012.9 0.0
11/06:30am 18.1 14.8 4.7 41 6.4 S 11 19 6 10 1012.6 1012.4 0.0
11/06:00am 18.6 14.9 4.4 39 6.8 S 13 17 7 9 1012.2 1012.0 0.0
11/05:30am 18.8 15.3 3.4 36 7.2 S 11 15 6 8 1011.9 1011.7 0.0
11/05:00am 19.1 15.5 2.9 34 7.5 S 11 17 6 9 1011.6 1011.4 0.0
11/04:30am 19.7 16.0 2.6 32 8.0 S 11 15 6 8 1011.4 1011.2 0.0
11/04:00am 20.2 16.8 1.6 29 8.5 S 9 15 5 8 1011.4 1011.2 0.0
11/03:30am 21.2 17.7 1.0 26 9.2 S 9 13 5 7 1011.2 1011.0 0.0
11/03:00am 21.7 18.3 1.9 27 9.2 S 9 15 5 8 1011.4 1011.2 0.0
11/02:30am 21.7 18.3 1.9 27 9.2 S 9 11 5 6 1011.5 1011.3 0.0
11/02:00am 23.1 19.3 2.0 25 10.0 S 11 15 6 8 1011.6 1011.4 0.0
11/01:30am 24.2 20.7 3.5 26 10.1 S 11 17 6 9 1011.6 1011.4 0.0
11/01:00am 23.8 21.0 5.2 30 9.4 SSW 9 15 5 8 1011.8 1011.6 0.0
11/12:30am 24.1 21.9 6.4 32 9.1 S 7 7 4 4 1011.6 1011.4 0.0
11/12:00am 25.2 23.1 5.9 29 9.9 SSE 6 7 3 4 1011.5 1011.3 0.0
 
Date/Time
EDT
Temp
°C
App
Temp
°C
Dew
Point
Rel
Hum
%
Delta-T
°C
Wind Press
QNH
hPa
Press
MSL
hPa
Rain
since 9 am
mm
Dir
 
Spd
km/h
Gust
km/h
Spd
kts
Gust
kts
10/11:30pm 27.0 24.5 6.4 27 10.8 S 9 11 5 6 1011.6 1011.4 0.0
10/11:00pm 27.8 25.3 6.6 26 11.2 SSE 9 13 5 7 1011.6 1011.4 0.0
10/10:30pm 28.7 26.5 6.1 24 11.9 S 7 7 4 4 1011.6 1011.4 0.0
10/10:00pm 29.8 27.7 6.5 23 12.5 SSE 7 9 4 5 1011.4 1011.2 0.0
10/09:30pm 30.8 28.2 6.0 21 13.2 S 9 11 5 6 1011.1 1010.9 0.0
10/09:00pm 32.2 29.0 4.9 18 14.4 S 11 15 6 8 1010.9 1010.7 0.0
10/08:30pm 33.3 30.3 4.1 16 15.3 S 9 13 5 7 1010.8 1010.6 0.0
10/08:00pm 34.7 31.4 2.3 13 16.6 SW 9 15 5 8 1010.5 1010.3 0.0
10/07:30pm 35.4 31.0 2.8 13 16.9 SW 15 22 8 12 1010.3 1010.1 0.0
10/07:00pm 36.0 32.3 2.1 12 17.5 SSW 11 22 6 12 1010.0 1009.8 0.0
10/06:30pm 37.0 33.2 1.7 11 18.2 SW 11 28 6 15 1009.7 1009.5 0.0
10/06:00pm 37.9 34.6 2.4 11 18.6 SSW 9 15 5 8 1009.8 1009.6 0.0
10/05:30pm 37.7 33.2 2.2 11 18.5 S 15 26 8 14 1009.7 1009.5 0.0
10/05:00pm 37.5 32.4 3.3 12 18.1 SW 19 35 10 19 1009.9 1009.7 0.0
10/04:30pm 37.0 32.8 4.0 13 17.6 SSW 15 24 8 13 1010.1 1009.9 0.0
10/04:00pm 36.8 31.8 1.5 11 18.1 SSW 17 26 9 14 1010.3 1010.1 0.0
10/03:30pm 37.3 33.9 1.9 11 18.3 SW 9 17 5 9 1010.6 1010.4 0.0
10/03:00pm 36.4 31.6 2.5 12 17.6 W 17 24 9 13 1011.0 1010.8 0.0
10/02:30pm 36.1 32.0 2.2 12 17.5 WSW 13 20 7 11 1011.4 1011.2 0.0
10/02:00pm 35.8 31.1 0.8 11 17.6 W 15 22 8 12 1011.8 1011.6 0.0
10/01:30pm 35.9 31.8 -0.5 10 18.0 SSE 11 17 6 9 1012.0 1011.8 0.0
10/01:00pm 35.6 31.8 -0.7 10 17.8 S 9 15 5 8 1012.3 1012.1 0.0
10/12:30pm 34.8 31.1 0.0 11 17.2 S 9 17 5 9 1012.7 1012.5 0.0
10/12:00pm 33.9 30.7 -0.7 11 16.8 ENE 6 13 3 7 1013.2 1013.0 0.0
10/11:30am 32.9 29.7 0.9 13 15.9 SSE 7 13 4 7 1013.3 1013.1 0.0
10/11:00am 31.7 28.7 1.9 15 14.9 S 7 11 4 6 1013.6 1013.4 0.0
10/10:30am 28.9 25.7 3.0 19 13.0 SSW 9 13 5 7 1013.7 1013.5 0.0
10/10:00am 26.7 23.8 4.5 24 11.2 S 9 13 5 7 1013.8 1013.6 0.0
10/09:30am 24.7 22.2 4.5 27 10.1 S 7 9 4 5 1014.1 1013.9 0.0
10/09:00am 23.2 19.8 4.2 29 9.3 SE 11 13 6 7 1013.8 1013.6 0.0
10/08:30am 21.2 17.8 3.9 32 8.3 SSE 11 17 6 9 1013.7 1013.5 0.0
10/08:00am 19.5 16.8 3.6 35 7.5 S 7 11 4 6 1013.7 1013.5 0.0
10/07:30am 18.0 15.1 2.7 36 7.0 S 7 9 4 5 1013.3 1013.1 0.0
10/07:00am 17.4 13.4 2.6 37 6.8 SSW 13 17 7 9 1013.0 1012.8 0.0
10/06:30am 17.3 14.2 3.6 40 6.4 SSW 9 11 5 6 1012.7 1012.5 0.0
10/06:00am 17.7 15.0 2.5 36 6.9 S 6 7 3 4 1012.4 1012.2 0.0
10/05:30am 17.8 14.6 2.9 37 6.9 SSE 9 11 5 6 1012.1 1011.9 0.0
10/05:00am 18.5 15.7 1.9 33 7.5 SSE 6 7 3 4 1012.3 1012.1 0.0
10/04:30am 19.2 16.8 2.1 32 7.8 SSE 4 7 2 4 1012.3 1012.1 0.0
10/04:00am 20.7 17.6 1.6 28 8.8 S 7 9 4 5 1012.5 1012.3 0.0
10/03:30am 21.5 18.2 2.2 28 9.0 S 9 13 5 7 1012.6 1012.4 0.0
10/03:00am 20.6 17.9 2.4 30 8.5 S 6 9 3 5 1012.8 1012.6 0.0
10/02:30am 21.4 18.5 2.6 29 8.9 S 7 11 4 6 1013.0 1012.8 0.0
10/02:00am 22.6 19.3 2.7 27 9.5 S 9 13 5 7 1013.3 1013.1 0.0
10/01:30am 23.6 20.4 3.0 26 9.9 S 9 13 5 7 1013.6 1013.4 0.0
10/01:00am 22.8 20.5 4.8 31 8.9 SSE 6 9 3 5 1013.8 1013.6 0.0
10/12:30am 24.6 21.4 3.3 25 10.4 SSE 9 11 5 6 1013.9 1013.7 0.0
10/12:00am 26.5 23.2 2.4 21 11.7 SSW 9 15 5 8 1013.8 1013.6 0.0
 
Date/Time
EDT
Temp
°C
App
Temp
°C
Dew
Point
Rel
Hum
%
Delta-T
°C
Wind Press
QNH
hPa
Press
MSL
hPa
Rain
since 9 am
mm
Dir
 
Spd
km/h
Gust
km/h
Spd
kts
Gust
kts
09/11:30pm 26.1 23.1 4.0 24 11.0 SSW 9 13 5 7 1013.9 1013.7 0.0
09/11:00pm 26.3 23.7 4.1 24 11.1 S 7 9 4 5 1014.1 1013.9 0.0
09/10:30pm 28.0 25.0 4.3 22 12.1 SSE 9 11 5 6 1014.1 1013.9 0.0
09/10:00pm 28.1 25.9 6.2 25 11.5 SSE 7 11 4 6 1014.0 1013.8 0.0
09/09:30pm 29.7 27.9 7.0 24 12.2 SSE 6 7 3 4 1013.8 1013.6 0.0
09/09:00pm 30.4 28.9 7.0 23 12.6 ENE 4 7 2 4 1013.6 1013.4 0.0
09/08:30pm 32.5 30.6 6.7 20 14.0 ENE 6 7 3 4 1013.5 1013.3 0.0
09/08:00pm 35.1 32.4 3.6 14 16.5 SSE 7 9 4 5 1013.3 1013.1 0.0
09/07:30pm 36.0 32.6 2.1 12 17.5 SSW 9 17 5 9 1013.3 1013.1 0.0
09/07:00pm 36.2 33.1 3.4 13 17.3 S 9 13 5 7 1013.3 1013.1 0.0
09/06:30pm 36.6 32.6 2.6 12 17.7 W 13 22 7 12 1013.3 1013.1 0.0
09/06:00pm 36.7 33.3 3.8 13 17.5 SW 11 20 6 11 1013.5 1013.3 0.0
09/05:30pm 36.6 34.3 4.8 14 17.1 SW 6 11 3 6 1013.7 1013.5 0.0
09/05:00pm 36.4 32.7 4.6 14 17.1 S 13 22 7 12 1014.0 1013.8 0.0
09/04:30pm 36.2 33.1 5.5 15 16.7 SSE 11 20 6 11 1014.3 1014.1 0.0
09/04:00pm 36.4 33.9 6.6 16 16.5 ESE 9 20 5 11 1014.8 1014.6 0.0
09/03:30pm 35.0 32.4 6.3 17 15.7 SSE 9 15 5 8 1015.2 1015.0 0.0
09/03:00pm 34.9 32.7 7.9 19 15.1 SW 9 17 5 9 1015.7 1015.5 0.0
09/02:30pm 34.1 31.7 7.2 19 14.9 SSW 9 13 5 7 1016.3 1016.1 0.0
09/02:00pm 33.8 30.8 7.7 20 14.5 SE 13 24 7 13 1016.6 1016.4 0.0
09/01:30pm 32.1 29.9 7.7 22 13.5 SSE 9 17 5 9 1017.0 1016.8 0.0
09/01:00pm 31.2 28.6 7.6 23 12.9 SE 11 20 6 11 1017.5 1017.3 0.0
09/12:30pm 29.8 27.2 7.7 25 12.0 SE 11 17 6 9 1018.1 1017.8 0.0
09/12:00pm 27.9 25.7 7.7 28 10.9 ENE 9 17 5 9 1018.5 1018.2 0.0
09/11:30am 27.3 24.7 7.7 29 10.5 E 11 17 6 9 1018.7 1018.4 0.0
09/11:00am 27.1 24.5 9.5 33 9.7 E 13 20 7 11 1019.0 1018.7 0.0
09/10:30am 24.9 22.3 9.2 37 8.5 SE 13 20 7 11 1019.1 1018.8 0.0
09/10:00am 23.2 20.1 8.9 40 7.7 SE 15 22 8 12 1019.1 1018.8 0.0
09/09:30am 22.3 18.6 9.5 44 6.9 SE 19 24 10 13 1019.3 1019.0 0.0
09/09:00am 21.0 17.3 9.3 47 6.2 SE 19 28 10 15 1019.2 1018.9 0.0
09/08:30am 20.4 17.2 9.9 51 5.6 SE 17 24 9 13 1019.0 1018.7 0.0
09/08:00am 19.3 16.8 9.8 54 5.1 SSE 13 19 7 10 1018.8 1018.5 0.0
09/07:30am 18.6 16.0 9.4 55 4.9 SSE 13 20 7 11 1018.6 1018.3 0.0
09/07:00am 18.7 15.6 8.9 53 5.1 SSE 15 20 8 11 1018.2 1017.9 0.0
09/06:30am 19.1 16.3 8.7 51 5.4 SSE 13 20 7 11 1018.0 1017.7 0.0
09/06:00am 19.3 16.4 8.3 49 5.7 SSE 13 20 7 11 1017.8 1017.5 0.0
09/05:30am 19.7 16.8 8.1 47 6.0 S 13 20 7 11 1017.7 1017.4 0.0
09/05:00am 20.1 17.5 7.8 45 6.3 S 11 17 6 9 1017.4 1017.2 0.0
09/04:30am 20.8 18.2 7.8 43 6.7 SSE 11 15 6 8 1017.4 1017.2 0.0
09/04:00am 21.7 18.7 7.5 40 7.3 SSE 13 17 7 9 1017.3 1017.1 0.0
09/03:30am 22.6 19.5 7.2 37 8.0 SSE 13 20 7 11 1017.2 1017.0 0.0
09/03:00am 23.3 19.8 7.0 35 8.4 SSE 15 19 8 10 1017.2 1017.0 0.0
09/02:30am 24.2 20.3 6.9 33 9.0 SSE 17 22 9 12 1017.2 1017.0 0.0
09/02:00am 24.9 20.9 6.6 31 9.5 SSE 17 28 9 15 1017.3 1017.1 0.0
09/01:30am 25.8 21.1 5.9 28 10.3 SSE 20 32 11 17 1017.3 1017.1 0.0
09/01:00am 26.5 21.9 3.7 23 11.3 SSE 17 28 9 15 1017.3 1017.1 0.0
09/12:30am 27.1 23.0 2.2 20 12.1 SSE 13 20 7 11 1017.1 1016.9 0.0
09/12:00am 28.1 23.6 2.3 19 12.7 SSE 15 22 8 12 1017.0 1016.8 0.0
 
Date/Time
EDT
Temp
°C
App
Temp
°C
Dew
Point
Rel
Hum
%
Delta-T
°C
Wind Press
QNH
hPa
Press
MSL
hPa
Rain
since 9 am
mm
Dir
 
Spd
km/h
Gust
km/h
Spd
kts
Gust
kts
08/11:30pm 28.9 24.8 4.4 21 12.6 SSE 15 24 8 13 1017.0 1016.8 0.0
08/11:00pm 29.6 26.0 6.9 24 12.2 SSE 15 20 8 11 1016.9 1016.7 0.0
08/10:30pm 30.4 26.8 8.2 25 12.2 SSE 17 22 9 12 1016.8 1016.6 0.0
08/10:00pm 30.9 27.6 8.0 24 12.6 SSE 15 22 8 12 1016.6 1016.4 0.0
08/09:30pm 31.8 28.5 8.1 23 13.1 SSE 15 20 8 11 1016.2 1016.0 0.0
08/09:00pm 32.6 29.3 8.1 22 13.6 SSE 15 24 8 13 1015.9 1015.7 0.0
08/08:30pm 33.6 30.0 8.3 21 14.2 S 17 26 9 14 1015.6 1015.4 0.0
08/08:00pm 34.8 31.1 7.8 19 15.1 S 17 24 9 13 1015.3 1015.1 0.0

Other Formats:

Comma delimited format used in spreadsheet applications
http://www.bom.gov.au/fwo/IDN60801/IDN60801.94693.axf

JavaScript Object Notation format (JSON) in row-major order
http://www.bom.gov.au/fwo/IDN60801/IDN60801.94693.json